Portada
METAR-TAF:

METAR-TAF

Aeropuertos :

Nadi, Fiyi

Aeropuerto Internacional de Nadi

latitud: 17-45S, longitud: 177-27E, altitud: 13 m

Observación

El informe se hizo hace 51 minutos, a las 01:00 UTC
Viento 8 kt del sureste, variando entre este y sur
Temperatura 29°C
Humedad 84%
Presión 1013 hPa
Visibilidad 10 km o más
Nubes dispersas a una altura de 2700 ft
Nubes dispersas a una altura de 30000 ft

METAR: NFFN 280100Z 14008KT 080V170 9999 SCT027 SCT300 29/26 Q1013 NOSIG

Hora: 13:51 (01:51 UTC)

Pronóstico

El informe se hizo hace 2 horas y 22 minutos, a las 23:29 UTC
Pronóstico válido del 28 a las 00 UTC al 28 a las 24 UTC
Viento 10 kt del este-sureste
Visibilidad 10 km o más
Escasas nubes a una altura de 2500 ft
Cielo nuboso a una altura de 4500 ft

TAF: NFFN 272329Z 2800/2824 12010KT 9999 FEW025 BKN045

Observaciones y pronósticos meteorológicos de más de 4000 aeropuertos (mensajes METAR y TAF).

Los puntos amarillos y rojos representan las estaciones disponibles.

Ponga el ratón en el punto deseado para ver el nombre de la estación.

Haga clic para ver las observaciones y los pronósticos meteorológicos.

Para cambiar el mapa : haga clic en los botones verdes con una cruz de color negro para hacer un zoom, en el botón verde con un guión para alejar o en las flechas verdes para mapas adyacentes.


METAR-TAF: